sensor_id;sensor_type;location;lat;lon;timestamp;temperature;humidity
26947;DHT22;14501;52.282;10.560;2023-01-19T00:01:23;-0.90;99.90
26947;DHT22;14501;52.282;10.560;2023-01-19T00:03:50;-0.90;99.90
26947;DHT22;14501;52.282;10.560;2023-01-19T00:06:15;-1.00;99.90
26947;DHT22;14501;52.282;10.560;2023-01-19T00:08:41;-1.00;99.90
26947;DHT22;14501;52.282;10.560;2023-01-19T00:18:29;-0.80;99.90
26947;DHT22;14501;52.282;10.560;2023-01-19T00:20:54;-1.00;99.90
26947;DHT22;14501;52.282;10.560;2023-01-19T00:23:20;0.10;99.90
26947;DHT22;14501;52.282;10.560;2023-01-19T00:28:14;-1.00;99.90
26947;DHT22;14501;52.282;10.560;2023-01-19T00:30:41;-1.00;99.90
26947;DHT22;14501;52.282;10.560;2023-01-19T00:33:08;-1.00;99.90
26947;DHT22;14501;52.282;10.560;2023-01-19T00:35:34;-1.00;99.90
26947;DHT22;14501;52.282;10.560;2023-01-19T00:40:27;-1.00;99.90
26947;DHT22;14501;52.282;10.560;2023-01-19T00:42:52;-1.00;99.90
26947;DHT22;14501;52.282;10.560;2023-01-19T00:45:21;-1.00;99.90
26947;DHT22;14501;52.282;10.560;2023-01-19T00:47:47;-1.10;99.90
26947;DHT22;14501;52.282;10.560;2023-01-19T00:50:15;-1.00;99.90
26947;DHT22;14501;52.282;10.560;2023-01-19T00:52:42;-0.90;99.90
26947;DHT22;14501;52.282;10.560;2023-01-19T00:55:10;-0.70;99.90
26947;DHT22;14501;52.282;10.560;2023-01-19T00:57:38;-0.70;99.90
26947;DHT22;14501;52.282;10.560;2023-01-19T01:00:06;-0.80;99.90
26947;DHT22;14501;52.282;10.560;2023-01-19T01:02:32;-0.50;99.90
26947;DHT22;14501;52.282;10.560;2023-01-19T01:04:58;-0.60;99.90
26947;DHT22;14501;52.282;10.560;2023-01-19T01:09:54;-0.20;99.90
26947;DHT22;14501;52.282;10.560;2023-01-19T01:19:42;-0.20;99.90
26947;DHT22;14501;52.282;10.560;2023-01-19T01:22:08;-0.30;99.90
26947;DHT22;14501;52.282;10.560;2023-01-19T01:24:34;-0.20;99.90
26947;DHT22;14501;52.282;10.560;2023-01-19T01:27:00;-0.20;99.90
26947;DHT22;14501;52.282;10.560;2023-01-19T01:29:26;-0.10;99.90
26947;DHT22;14501;52.282;10.560;2023-01-19T01:39:09;0.00;99.90
26947;DHT22;14501;52.282;10.560;2023-01-19T01:46:31;0.00;99.90
26947;DHT22;14501;52.282;10.560;2023-01-19T01:49:06;0.00;99.90
26947;DHT22;14501;52.282;10.560;2023-01-19T01:51:44;0.20;99.90
26947;DHT22;14501;52.282;10.560;2023-01-19T01:54:27;0.00;99.90
26947;DHT22;14501;52.282;10.560;2023-01-19T01:56:57;0.10;99.90
26947;DHT22;14501;52.282;10.560;2023-01-19T01:59:34;0.10;99.90
26947;DHT22;14501;52.282;10.560;2023-01-19T02:02:24;-0.10;99.90
26947;DHT22;14501;52.282;10.560;2023-01-19T02:05:26;0.00;99.90
26947;DHT22;14501;52.282;10.560;2023-01-19T02:10:50;0.00;99.90
26947;DHT22;14501;52.282;10.560;2023-01-19T02:13:37;0.00;99.90
26947;DHT22;14501;52.282;10.560;2023-01-19T02:16:07;0.00;99.90
26947;DHT22;14501;52.282;10.560;2023-01-19T02:18:35;0.10;99.90
26947;DHT22;14501;52.282;10.560;2023-01-19T02:26:33;0.10;99.90
26947;DHT22;14501;52.282;10.560;2023-01-19T02:29:10;0.10;99.90
26947;DHT22;14501;52.282;10.560;2023-01-19T02:31:38;0.10;99.90
26947;DHT22;14501;52.282;10.560;2023-01-19T02:34:06;0.10;99.90
26947;DHT22;14501;52.282;10.560;2023-01-19T02:36:54;0.20;99.90
26947;DHT22;14501;52.282;10.560;2023-01-19T02:39:44;0.20;99.90
26947;DHT22;14501;52.282;10.560;2023-01-19T02:42:16;0.10;99.90
26947;DHT22;14501;52.282;10.560;2023-01-19T02:44:45;0.10;99.90
26947;DHT22;14501;52.282;10.560;2023-01-19T02:49:38;0.20;99.90
26947;DHT22;14501;52.282;10.560;2023-01-19T03:08:49;0.20;99.90
26947;DHT22;14501;52.282;10.560;2023-01-19T03:11:05;0.20;99.90
26947;DHT22;14501;52.282;10.560;2023-01-19T03:13:46;0.20;99.90
26947;DHT22;14501;52.282;10.560;2023-01-19T03:16:43;0.20;99.90
26947;DHT22;14501;52.282;10.560;2023-01-19T03:22:02;0.20;99.90
26947;DHT22;14501;52.282;10.560;2023-01-19T03:24:33;0.20;99.90
26947;DHT22;14501;52.282;10.560;2023-01-19T03:27:05;0.10;99.90
26947;DHT22;14501;52.282;10.560;2023-01-19T03:29:32;0.10;99.90
26947;DHT22;14501;52.282;10.560;2023-01-19T03:32:06;0.10;99.90
26947;DHT22;14501;52.282;10.560;2023-01-19T03:34:33;0.10;99.90
26947;DHT22;14501;52.282;10.560;2023-01-19T03:37:20;0.10;99.90
26947;DHT22;14501;52.282;10.560;2023-01-19T03:42:13;0.10;99.90
26947;DHT22;14501;52.282;10.560;2023-01-19T03:44:42;0.10;99.90
26947;DHT22;14501;52.282;10.560;2023-01-19T03:47:10;0.10;99.90
26947;DHT22;14501;52.282;10.560;2023-01-19T03:49:36;0.10;99.90
26947;DHT22;14501;52.282;10.560;2023-01-19T03:52:04;0.10;99.90
26947;DHT22;14501;52.282;10.560;2023-01-19T03:54:30;0.10;99.90
26947;DHT22;14501;52.282;10.560;2023-01-19T03:56:56;0.10;99.90
26947;DHT22;14501;52.282;10.560;2023-01-19T03:59:21;0.10;99.90
26947;DHT22;14501;52.282;10.560;2023-01-19T04:01:47;0.10;99.90
26947;DHT22;14501;52.282;10.560;2023-01-19T04:04:13;0.10;99.90
26947;DHT22;14501;52.282;10.560;2023-01-19T04:06:40;0.10;99.90
26947;DHT22;14501;52.282;10.560;2023-01-19T04:09:06;0.10;99.90
26947;DHT22;14501;52.282;10.560;2023-01-19T04:11:31;0.00;99.90
26947;DHT22;14501;52.282;10.560;2023-01-19T04:13:57;0.00;99.90
26947;DHT22;14501;52.282;10.560;2023-01-19T04:16:22;-0.10;99.90
26947;DHT22;14501;52.282;10.560;2023-01-19T04:18:48;-0.10;99.90
26947;DHT22;14501;52.282;10.560;2023-01-19T04:21:15;-0.20;99.90
26947;DHT22;14501;52.282;10.560;2023-01-19T04:23:41;-0.10;99.90
26947;DHT22;14501;52.282;10.560;2023-01-19T04:26:08;-0.10;99.90
26947;DHT22;14501;52.282;10.560;2023-01-19T04:28:35;-0.10;99.90
26947;DHT22;14501;52.282;10.560;2023-01-19T04:31:02;-0.20;99.90
26947;DHT22;14501;52.282;10.560;2023-01-19T04:33:28;-0.10;99.90
26947;DHT22;14501;52.282;10.560;2023-01-19T04:35:53;-0.20;99.90
26947;DHT22;14501;52.282;10.560;2023-01-19T04:38:21;-0.10;99.90
26947;DHT22;14501;52.282;10.560;2023-01-19T04:40:48;-0.10;99.90
26947;DHT22;14501;52.282;10.560;2023-01-19T04:43:14;-0.30;99.90
26947;DHT22;14501;52.282;10.560;2023-01-19T04:45:40;-0.10;99.90
26947;DHT22;14501;52.282;10.560;2023-01-19T04:48:06;-0.10;99.90
26947;DHT22;14501;52.282;10.560;2023-01-19T04:50:31;-0.10;99.90
26947;DHT22;14501;52.282;10.560;2023-01-19T04:52:57;-0.10;99.90
26947;DHT22;14501;52.282;10.560;2023-01-19T04:55:23;1.50;99.90
26947;DHT22;14501;52.282;10.560;2023-01-19T04:57:49;0.00;99.90
26947;DHT22;14501;52.282;10.560;2023-01-19T05:00:15;0.00;99.90
26947;DHT22;14501;52.282;10.560;2023-01-19T05:02:42;0.00;99.90
26947;DHT22;14501;52.282;10.560;2023-01-19T05:05:09;-0.10;99.90
26947;DHT22;14501;52.282;10.560;2023-01-19T05:07:36;-0.10;99.90
26947;DHT22;14501;52.282;10.560;2023-01-19T05:10:02;-0.10;99.90
26947;DHT22;14501;52.282;10.560;2023-01-19T05:12:27;-0.10;99.90
26947;DHT22;14501;52.282;10.560;2023-01-19T05:14:53;-0.10;99.90
26947;DHT22;14501;52.282;10.560;2023-01-19T05:17:18;-0.10;99.90
26947;DHT22;14501;52.282;10.560;2023-01-19T05:19:44;-0.20;99.90
26947;DHT22;14501;52.282;10.560;2023-01-19T05:22:10;-0.20;99.90
26947;DHT22;14501;52.282;10.560;2023-01-19T05:24:35;-0.20;99.90
26947;DHT22;14501;52.282;10.560;2023-01-19T05:27:01;-0.10;99.90
26947;DHT22;14501;52.282;10.560;2023-01-19T05:29:26;-0.20;99.90
26947;DHT22;14501;52.282;10.560;2023-01-19T05:31:52;-0.10;99.90
26947;DHT22;14501;52.282;10.560;2023-01-19T05:34:18;-0.10;99.90
26947;DHT22;14501;52.282;10.560;2023-01-19T05:36:43;-0.10;99.90
26947;DHT22;14501;52.282;10.560;2023-01-19T05:39:09;-0.10;99.90
26947;DHT22;14501;52.282;10.560;2023-01-19T05:41:35;-0.10;99.90
26947;DHT22;14501;52.282;10.560;2023-01-19T05:44:01;0.00;99.90
26947;DHT22;14501;52.282;10.560;2023-01-19T05:46:26;0.00;99.90
26947;DHT22;14501;52.282;10.560;2023-01-19T05:48:52;0.00;99.90
26947;DHT22;14501;52.282;10.560;2023-01-19T05:51:18;0.00;99.90
26947;DHT22;14501;52.282;10.560;2023-01-19T05:53:43;0.00;99.90
26947;DHT22;14501;52.282;10.560;2023-01-19T05:56:09;-0.10;99.90
26947;DHT22;14501;52.282;10.560;2023-01-19T05:58:36;-0.10;99.90
26947;DHT22;14501;52.282;10.560;2023-01-19T06:01:08;-0.10;99.90
26947;DHT22;14501;52.282;10.560;2023-01-19T06:03:35;-0.10;99.90
26947;DHT22;14501;52.282;10.560;2023-01-19T06:06:02;-0.10;99.90
26947;DHT22;14501;52.282;10.560;2023-01-19T06:08:28;-0.10;99.90
26947;DHT22;14501;52.282;10.560;2023-01-19T06:10:54;-0.10;99.90
26947;DHT22;14501;52.282;10.560;2023-01-19T06:13:19;-0.20;99.90
26947;DHT22;14501;52.282;10.560;2023-01-19T06:15:45;-0.10;99.90
26947;DHT22;14501;52.282;10.560;2023-01-19T06:18:11;-0.10;99.90
26947;DHT22;14501;52.282;10.560;2023-01-19T06:23:05;-0.10;99.90
26947;DHT22;14501;52.282;10.560;2023-01-19T06:25:31;-0.10;99.90
26947;DHT22;14501;52.282;10.560;2023-01-19T06:27:56;0.00;99.90
26947;DHT22;14501;52.282;10.560;2023-01-19T06:30:22;0.00;99.90
26947;DHT22;14501;52.282;10.560;2023-01-19T06:32:48;0.40;99.90
26947;DHT22;14501;52.282;10.560;2023-01-19T06:35:14;0.00;99.90
26947;DHT22;14501;52.282;10.560;2023-01-19T06:37:39;0.30;99.90
26947;DHT22;14501;52.282;10.560;2023-01-19T06:40:06;0.00;99.90
26947;DHT22;14501;52.282;10.560;2023-01-19T06:42:32;0.10;99.90
26947;DHT22;14501;52.282;10.560;2023-01-19T06:44:57;2.10;99.90
26947;DHT22;14501;52.282;10.560;2023-01-19T06:49:49;0.80;99.90
26947;DHT22;14501;52.282;10.560;2023-01-19T06:52:15;0.20;99.90
26947;DHT22;14501;52.282;10.560;2023-01-19T06:54:42;0.30;99.90
26947;DHT22;14501;52.282;10.560;2023-01-19T06:57:08;0.30;99.90
26947;DHT22;14501;52.282;10.560;2023-01-19T06:59:36;0.50;99.90
26947;DHT22;14501;52.282;10.560;2023-01-19T07:02:02;0.50;99.90
26947;DHT22;14501;52.282;10.560;2023-01-19T07:04:27;0.60;99.90
26947;DHT22;14501;52.282;10.560;2023-01-19T07:06:53;0.60;99.90
26947;DHT22;14501;52.282;10.560;2023-01-19T07:09:19;0.60;99.90
26947;DHT22;14501;52.282;10.560;2023-01-19T07:11:45;0.70;99.90
26947;DHT22;14501;52.282;10.560;2023-01-19T07:14:10;1.90;99.90
26947;DHT22;14501;52.282;10.560;2023-01-19T07:16:36;1.20;99.90
26947;DHT22;14501;52.282;10.560;2023-01-19T07:19:02;0.70;99.90
26947;DHT22;14501;52.282;10.560;2023-01-19T07:21:27;0.80;99.90
26947;DHT22;14501;52.282;10.560;2023-01-19T07:23:53;0.80;99.90
26947;DHT22;14501;52.282;10.560;2023-01-19T07:26:19;0.80;99.90
26947;DHT22;14501;52.282;10.560;2023-01-19T07:28:46;0.90;99.90
26947;DHT22;14501;52.282;10.560;2023-01-19T07:31:12;1.30;99.90
26947;DHT22;14501;52.282;10.560;2023-01-19T07:33:37;0.90;99.90
26947;DHT22;14501;52.282;10.560;2023-01-19T07:36:03;1.40;99.90
26947;DHT22;14501;52.282;10.560;2023-01-19T07:38:28;1.50;99.90
26947;DHT22;14501;52.282;10.560;2023-01-19T07:41:01;1.50;99.90
26947;DHT22;14501;52.282;10.560;2023-01-19T07:43:27;1.50;99.90
26947;DHT22;14501;52.282;10.560;2023-01-19T07:45:57;1.50;99.90
26947;DHT22;14501;52.282;10.560;2023-01-19T07:48:22;1.50;99.90
26947;DHT22;14501;52.282;10.560;2023-01-19T07:50:48;1.40;99.90
26947;DHT22;14501;52.282;10.560;2023-01-19T07:53:14;1.40;99.90
26947;DHT22;14501;52.282;10.560;2023-01-19T07:55:39;1.40;99.90
26947;DHT22;14501;52.282;10.560;2023-01-19T07:58:05;1.50;99.90
26947;DHT22;14501;52.282;10.560;2023-01-19T08:00:32;1.50;99.90
26947;DHT22;14501;52.282;10.560;2023-01-19T08:02:59;1.50;99.90
26947;DHT22;14501;52.282;10.560;2023-01-19T08:05:25;1.70;99.90
26947;DHT22;14501;52.282;10.560;2023-01-19T08:07:54;1.70;99.90
26947;DHT22;14501;52.282;10.560;2023-01-19T08:10:23;1.60;99.90
26947;DHT22;14501;52.282;10.560;2023-01-19T08:12:54;1.90;99.90
26947;DHT22;14501;52.282;10.560;2023-01-19T08:15:20;2.10;99.90
26947;DHT22;14501;52.282;10.560;2023-01-19T08:18:01;2.30;99.90
26947;DHT22;14501;52.282;10.560;2023-01-19T08:20:30;2.70;99.90
26947;DHT22;14501;52.282;10.560;2023-01-19T08:22:56;3.00;99.90
26947;DHT22;14501;52.282;10.560;2023-01-19T08:25:47;5.20;99.90
26947;DHT22;14501;52.282;10.560;2023-01-19T08:28:14;4.40;99.90
26947;DHT22;14501;52.282;10.560;2023-01-19T08:30:41;5.70;99.90
26947;DHT22;14501;52.282;10.560;2023-01-19T08:33:09;5.80;99.90
26947;DHT22;14501;52.282;10.560;2023-01-19T08:35:37;6.50;99.90
26947;DHT22;14501;52.282;10.560;2023-01-19T08:38:07;6.80;99.90
26947;DHT22;14501;52.282;10.560;2023-01-19T08:40:38;5.60;99.90
26947;DHT22;14501;52.282;10.560;2023-01-19T08:43:10;5.10;99.90
26947;DHT22;14501;52.282;10.560;2023-01-19T08:45:37;4.50;99.90
26947;DHT22;14501;52.282;10.560;2023-01-19T08:48:06;5.50;99.90
26947;DHT22;14501;52.282;10.560;2023-01-19T08:50:32;3.90;99.90
26947;DHT22;14501;52.282;10.560;2023-01-19T08:53:00;3.50;99.90
26947;DHT22;14501;52.282;10.560;2023-01-19T08:55:26;4.90;99.90
26947;DHT22;14501;52.282;10.560;2023-01-19T08:57:54;3.10;99.90
26947;DHT22;14501;52.282;10.560;2023-01-19T09:00:21;3.10;99.90
26947;DHT22;14501;52.282;10.560;2023-01-19T09:02:47;3.00;99.90
26947;DHT22;14501;52.282;10.560;2023-01-19T09:05:13;2.80;99.90
26947;DHT22;14501;52.282;10.560;2023-01-19T09:07:39;3.40;99.90
26947;DHT22;14501;52.282;10.560;2023-01-19T09:10:06;3.80;99.90
26947;DHT22;14501;52.282;10.560;2023-01-19T09:12:32;5.00;99.90
26947;DHT22;14501;52.282;10.560;2023-01-19T09:14:57;6.40;99.90
26947;DHT22;14501;52.282;10.560;2023-01-19T09:17:24;8.00;99.90
26947;DHT22;14501;52.282;10.560;2023-01-19T09:19:49;8.90;99.90
26947;DHT22;14501;52.282;10.560;2023-01-19T09:22:15;9.20;99.90
26947;DHT22;14501;52.282;10.560;2023-01-19T09:24:41;8.70;99.90
26947;DHT22;14501;52.282;10.560;2023-01-19T09:27:06;7.50;99.90
26947;DHT22;14501;52.282;10.560;2023-01-19T09:29:32;6.60;99.90
26947;DHT22;14501;52.282;10.560;2023-01-19T09:31:57;6.20;99.90
26947;DHT22;14501;52.282;10.560;2023-01-19T09:34:23;5.70;99.90
26947;DHT22;14501;52.282;10.560;2023-01-19T09:36:53;4.90;99.90
26947;DHT22;14501;52.282;10.560;2023-01-19T09:39:18;4.80;99.90
26947;DHT22;14501;52.282;10.560;2023-01-19T09:41:48;5.00;99.90
26947;DHT22;14501;52.282;10.560;2023-01-19T09:44:31;4.40;99.90
26947;DHT22;14501;52.282;10.560;2023-01-19T09:46:57;4.20;99.90
26947;DHT22;14501;52.282;10.560;2023-01-19T09:49:33;4.00;99.90
26947;DHT22;14501;52.282;10.560;2023-01-19T09:52:00;4.90;99.90
26947;DHT22;14501;52.282;10.560;2023-01-19T09:57:10;3.60;99.90
26947;DHT22;14501;52.282;10.560;2023-01-19T09:59:36;3.50;99.90
26947;DHT22;14501;52.282;10.560;2023-01-19T10:15:55;3.20;99.90
26947;DHT22;14501;52.282;10.560;2023-01-19T10:18:26;3.30;99.90
26947;DHT22;14501;52.282;10.560;2023-01-19T10:21:09;3.30;99.90
26947;DHT22;14501;52.282;10.560;2023-01-19T10:23:50;3.30;99.90
26947;DHT22;14501;52.282;10.560;2023-01-19T10:26:31;3.10;99.90
26947;DHT22;14501;52.282;10.560;2023-01-19T10:29:23;3.30;99.90
26947;DHT22;14501;52.282;10.560;2023-01-19T10:32:10;3.30;99.90
26947;DHT22;14501;52.282;10.560;2023-01-19T10:34:37;3.30;99.90
26947;DHT22;14501;52.282;10.560;2023-01-19T10:39:44;3.40;99.90
26947;DHT22;14501;52.282;10.560;2023-01-19T10:42:15;3.30;99.90
26947;DHT22;14501;52.282;10.560;2023-01-19T10:44:43;3.20;99.90
26947;DHT22;14501;52.282;10.560;2023-01-19T10:47:18;3.30;99.90
26947;DHT22;14501;52.282;10.560;2023-01-19T10:49:44;3.20;99.90
26947;DHT22;14501;52.282;10.560;2023-01-19T10:52:32;3.10;99.90
26947;DHT22;14501;52.282;10.560;2023-01-19T10:55:01;3.20;99.90
26947;DHT22;14501;52.282;10.560;2023-01-19T10:57:30;3.00;99.90
26947;DHT22;14501;52.282;10.560;2023-01-19T10:59:56;3.10;99.90
26947;DHT22;14501;52.282;10.560;2023-01-19T11:02:29;3.10;99.90
26947;DHT22;14501;52.282;10.560;2023-01-19T11:04:57;3.10;99.90
26947;DHT22;14501;52.282;10.560;2023-01-19T11:07:32;3.10;99.90
26947;DHT22;14501;52.282;10.560;2023-01-19T11:12:43;3.40;99.90
26947;DHT22;14501;52.282;10.560;2023-01-19T11:15:22;3.20;99.90
26947;DHT22;14501;52.282;10.560;2023-01-19T11:17:48;3.30;99.90
26947;DHT22;14501;52.282;10.560;2023-01-19T11:20:39;3.30;99.90
26947;DHT22;14501;52.282;10.560;2023-01-19T11:25:48;3.30;99.90
26947;DHT22;14501;52.282;10.560;2023-01-19T11:31:15;3.40;99.90
26947;DHT22;14501;52.282;10.560;2023-01-19T11:36:28;3.30;99.90
26947;DHT22;14501;52.282;10.560;2023-01-19T11:38:57;3.30;99.90
26947;DHT22;14501;52.282;10.560;2023-01-19T11:41:34;3.50;99.90
26947;DHT22;14501;52.282;10.560;2023-01-19T11:44:23;3.40;99.90
26947;DHT22;14501;52.282;10.560;2023-01-19T11:46:57;3.60;99.90
26947;DHT22;14501;52.282;10.560;2023-01-19T11:49:43;3.50;99.90
26947;DHT22;14501;52.282;10.560;2023-01-19T11:52:30;3.50;99.90
26947;DHT22;14501;52.282;10.560;2023-01-19T11:57:45;3.30;99.90
26947;DHT22;14501;52.282;10.560;2023-01-19T12:03:15;3.10;99.90
26947;DHT22;14501;52.282;10.560;2023-01-19T12:05:48;3.10;99.90
26947;DHT22;14501;52.282;10.560;2023-01-19T12:08:19;3.80;99.90
26947;DHT22;14501;52.282;10.560;2023-01-19T12:10:47;3.10;99.90
26947;DHT22;14501;52.282;10.560;2023-01-19T12:13:21;3.00;99.90
26947;DHT22;14501;52.282;10.560;2023-01-19T12:15:52;3.00;99.90
26947;DHT22;14501;52.282;10.560;2023-01-19T12:18:24;2.90;99.90
26947;DHT22;14501;52.282;10.560;2023-01-19T12:20:53;3.10;99.90
26947;DHT22;14501;52.282;10.560;2023-01-19T12:28:43;3.20;99.90
26947;DHT22;14501;52.282;10.560;2023-01-19T12:31:14;3.20;99.90
26947;DHT22;14501;52.282;10.560;2023-01-19T12:33:41;3.50;99.90
26947;DHT22;14501;52.282;10.560;2023-01-19T12:38:50;3.40;99.90
26947;DHT22;14501;52.282;10.560;2023-01-19T12:44:28;3.50;99.90
26947;DHT22;14501;52.282;10.560;2023-01-19T12:46:55;3.50;99.90
26947;DHT22;14501;52.282;10.560;2023-01-19T12:57:30;3.70;99.90
26947;DHT22;14501;52.282;10.560;2023-01-19T13:00:06;3.70;99.90
26947;DHT22;14501;52.282;10.560;2023-01-19T13:02:55;3.70;99.90
26947;DHT22;14501;52.282;10.560;2023-01-19T13:15:50;3.50;99.90
26947;DHT22;14501;52.282;10.560;2023-01-19T13:18:28;3.40;99.90
26947;DHT22;14501;52.282;10.560;2023-01-19T13:21:03;3.50;99.90
26947;DHT22;14501;52.282;10.560;2023-01-19T13:26:18;3.50;99.90
26947;DHT22;14501;52.282;10.560;2023-01-19T13:28:47;3.40;99.90
26947;DHT22;14501;52.282;10.560;2023-01-19T13:31:14;3.40;99.90
26947;DHT22;14501;52.282;10.560;2023-01-19T13:33:58;3.30;99.90
26947;DHT22;14501;52.282;10.560;2023-01-19T13:36:38;3.30;99.90
26947;DHT22;14501;52.282;10.560;2023-01-19T13:39:33;3.30;99.90
26947;DHT22;14501;52.282;10.560;2023-01-19T13:42:00;3.30;99.90
26947;DHT22;14501;52.282;10.560;2023-01-19T13:44:36;3.20;99.90
26947;DHT22;14501;52.282;10.560;2023-01-19T13:47:07;3.40;99.90
26947;DHT22;14501;52.282;10.560;2023-01-19T13:49:41;3.00;99.90
26947;DHT22;14501;52.282;10.560;2023-01-19T13:52:15;3.00;99.90
26947;DHT22;14501;52.282;10.560;2023-01-19T13:57:52;2.90;99.90
26947;DHT22;14501;52.282;10.560;2023-01-19T14:00:27;2.80;99.90
26947;DHT22;14501;52.282;10.560;2023-01-19T14:05:28;2.60;99.90
26947;DHT22;14501;52.282;10.560;2023-01-19T14:10:34;2.50;99.90
26947;DHT22;14501;52.282;10.560;2023-01-19T14:13:02;2.50;99.90
26947;DHT22;14501;52.282;10.560;2023-01-19T14:15:29;2.40;99.90
26947;DHT22;14501;52.282;10.560;2023-01-19T14:23:44;2.30;99.90
26947;DHT22;14501;52.282;10.560;2023-01-19T14:26:39;2.20;99.90
26947;DHT22;14501;52.282;10.560;2023-01-19T14:29:30;2.10;99.90
26947;DHT22;14501;52.282;10.560;2023-01-19T14:34:51;2.30;99.90
26947;DHT22;14501;52.282;10.560;2023-01-19T14:37:29;2.00;99.90
26947;DHT22;14501;52.282;10.560;2023-01-19T14:42:32;1.90;99.90
26947;DHT22;14501;52.282;10.560;2023-01-19T14:45:13;2.00;99.90
26947;DHT22;14501;52.282;10.560;2023-01-19T14:47:42;1.90;99.90
26947;DHT22;14501;52.282;10.560;2023-01-19T14:52:56;2.00;99.90
26947;DHT22;14501;52.282;10.560;2023-01-19T14:58:17;2.00;99.90
26947;DHT22;14501;52.282;10.560;2023-01-19T15:00:44;2.00;99.90
26947;DHT22;14501;52.282;10.560;2023-01-19T15:03:10;1.90;99.90
26947;DHT22;14501;52.282;10.560;2023-01-19T15:05:37;2.00;99.90
26947;DHT22;14501;52.282;10.560;2023-01-19T15:08:03;2.00;99.90
26947;DHT22;14501;52.282;10.560;2023-01-19T15:10:30;2.00;99.90
26947;DHT22;14501;52.282;10.560;2023-01-19T15:12:56;2.00;99.90
26947;DHT22;14501;52.282;10.560;2023-01-19T15:15:27;2.00;99.90
26947;DHT22;14501;52.282;10.560;2023-01-19T15:17:53;2.00;99.90
26947;DHT22;14501;52.282;10.560;2023-01-19T15:20:20;1.90;99.90
26947;DHT22;14501;52.282;10.560;2023-01-19T15:22:48;2.00;99.90
26947;DHT22;14501;52.282;10.560;2023-01-19T15:25:22;2.00;99.90
26947;DHT22;14501;52.282;10.560;2023-01-19T15:27:51;2.00;99.90
26947;DHT22;14501;52.282;10.560;2023-01-19T15:30:26;1.90;99.90
26947;DHT22;14501;52.282;10.560;2023-01-19T15:33:00;2.00;99.90
26947;DHT22;14501;52.282;10.560;2023-01-19T15:35:26;2.00;99.90
26947;DHT22;14501;52.282;10.560;2023-01-19T15:37:52;2.00;99.90
26947;DHT22;14501;52.282;10.560;2023-01-19T15:40:18;2.00;99.90
26947;DHT22;14501;52.282;10.560;2023-01-19T15:42:44;2.10;99.90
26947;DHT22;14501;52.282;10.560;2023-01-19T15:45:32;2.10;99.90
26947;DHT22;14501;52.282;10.560;2023-01-19T15:48:06;2.10;99.90
26947;DHT22;14501;52.282;10.560;2023-01-19T15:50:34;2.10;99.90
26947;DHT22;14501;52.282;10.560;2023-01-19T15:53:00;2.20;99.90
26947;DHT22;14501;52.282;10.560;2023-01-19T15:55:26;2.10;99.90
26947;DHT22;14501;52.282;10.560;2023-01-19T15:57:51;2.00;99.90
26947;DHT22;14501;52.282;10.560;2023-01-19T16:00:17;2.10;99.90
26947;DHT22;14501;52.282;10.560;2023-01-19T16:02:43;2.10;99.90
26947;DHT22;14501;52.282;10.560;2023-01-19T16:05:27;2.20;99.90
26947;DHT22;14501;52.282;10.560;2023-01-19T16:07:53;2.20;99.90
26947;DHT22;14501;52.282;10.560;2023-01-19T16:10:18;2.20;99.90
26947;DHT22;14501;52.282;10.560;2023-01-19T16:12:44;2.10;99.90
26947;DHT22;14501;52.282;10.560;2023-01-19T16:15:12;2.10;99.90
26947;DHT22;14501;52.282;10.560;2023-01-19T16:17:38;2.60;99.90
26947;DHT22;14501;52.282;10.560;2023-01-19T16:20:05;2.10;99.90
26947;DHT22;14501;52.282;10.560;2023-01-19T16:22:31;2.10;99.90
26947;DHT22;14501;52.282;10.560;2023-01-19T16:24:57;2.10;99.90
26947;DHT22;14501;52.282;10.560;2023-01-19T16:27:23;2.00;99.90
26947;DHT22;14501;52.282;10.560;2023-01-19T16:29:48;1.90;99.90
26947;DHT22;14501;52.282;10.560;2023-01-19T16:32:14;1.80;99.90
26947;DHT22;14501;52.282;10.560;2023-01-19T16:34:40;1.70;99.90
26947;DHT22;14501;52.282;10.560;2023-01-19T16:37:06;1.70;99.90
26947;DHT22;14501;52.282;10.560;2023-01-19T16:39:32;1.60;99.90
26947;DHT22;14501;52.282;10.560;2023-01-19T16:41:58;1.70;99.90
26947;DHT22;14501;52.282;10.560;2023-01-19T16:44:24;1.50;99.90
26947;DHT22;14501;52.282;10.560;2023-01-19T16:46:49;1.40;99.90
26947;DHT22;14501;52.282;10.560;2023-01-19T16:49:17;1.40;99.90
26947;DHT22;14501;52.282;10.560;2023-01-19T16:51:43;2.40;99.90
26947;DHT22;14501;52.282;10.560;2023-01-19T16:54:13;1.20;99.90
26947;DHT22;14501;52.282;10.560;2023-01-19T16:56:39;1.20;99.90
26947;DHT22;14501;52.282;10.560;2023-01-19T16:59:05;1.20;99.90
26947;DHT22;14501;52.282;10.560;2023-01-19T17:01:31;1.10;99.90
26947;DHT22;14501;52.282;10.560;2023-01-19T17:03:57;1.20;99.90
26947;DHT22;14501;52.282;10.560;2023-01-19T17:06:23;1.10;99.90
26947;DHT22;14501;52.282;10.560;2023-01-19T17:08:50;1.10;99.90
26947;DHT22;14501;52.282;10.560;2023-01-19T17:11:22;1.00;99.90
26947;DHT22;14501;52.282;10.560;2023-01-19T17:13:59;1.10;99.90
26947;DHT22;14501;52.282;10.560;2023-01-19T17:16:26;1.10;99.90
26947;DHT22;14501;52.282;10.560;2023-01-19T17:18:53;1.10;99.90
26947;DHT22;14501;52.282;10.560;2023-01-19T17:21:19;1.20;99.90
26947;DHT22;14501;52.282;10.560;2023-01-19T17:23:47;1.00;99.90
26947;DHT22;14501;52.282;10.560;2023-01-19T17:26:13;1.00;99.90
26947;DHT22;14501;52.282;10.560;2023-01-19T17:28:39;0.90;99.90
26947;DHT22;14501;52.282;10.560;2023-01-19T17:31:07;0.80;99.90
26947;DHT22;14501;52.282;10.560;2023-01-19T17:33:33;0.90;99.90
26947;DHT22;14501;52.282;10.560;2023-01-19T17:36:04;3.90;99.90
26947;DHT22;14501;52.282;10.560;2023-01-19T17:38:30;0.90;99.90
26947;DHT22;14501;52.282;10.560;2023-01-19T17:40:56;0.80;99.90
26947;DHT22;14501;52.282;10.560;2023-01-19T17:43:22;0.80;99.90
26947;DHT22;14501;52.282;10.560;2023-01-19T17:45:47;0.80;99.90
26947;DHT22;14501;52.282;10.560;2023-01-19T17:50:39;0.80;99.90
26947;DHT22;14501;52.282;10.560;2023-01-19T17:53:04;0.80;99.90
26947;DHT22;14501;52.282;10.560;2023-01-19T17:55:33;2.40;99.90
26947;DHT22;14501;52.282;10.560;2023-01-19T17:58:00;0.80;99.90
26947;DHT22;14501;52.282;10.560;2023-01-19T18:00:26;0.80;99.90
26947;DHT22;14501;52.282;10.560;2023-01-19T18:02:52;0.70;99.90
26947;DHT22;14501;52.282;10.560;2023-01-19T18:05:19;0.70;99.90
26947;DHT22;14501;52.282;10.560;2023-01-19T18:07:45;0.70;99.90
26947;DHT22;14501;52.282;10.560;2023-01-19T18:10:11;0.70;99.90
26947;DHT22;14501;52.282;10.560;2023-01-19T18:12:36;0.70;99.90
26947;DHT22;14501;52.282;10.560;2023-01-19T18:15:03;0.70;99.90
26947;DHT22;14501;52.282;10.560;2023-01-19T18:17:30;0.70;99.90
26947;DHT22;14501;52.282;10.560;2023-01-19T18:19:55;0.60;99.90
26947;DHT22;14501;52.282;10.560;2023-01-19T18:22:21;0.70;99.90
26947;DHT22;14501;52.282;10.560;2023-01-19T18:24:47;0.70;99.90
26947;DHT22;14501;52.282;10.560;2023-01-19T18:27:14;0.60;99.90